createdAt,value
2022-09-02T00:02:01.266Z,98135.26
2022-09-02T00:25:44.980Z,98122.56
2022-09-02T00:29:19.212Z,98125.73
2022-09-02T00:32:56.427Z,98131.02
2022-09-02T00:46:30.772Z,98118.05
2022-09-02T00:50:08.749Z,98120.36
2022-09-02T01:05:19.795Z,98120.11
2022-09-02T01:08:59.891Z,98121.05
2022-09-02T01:12:34.561Z,98122.13
2022-09-02T01:25:50.833Z,98116.14
2022-09-02T01:29:24.680Z,98117.03
2022-09-02T01:32:58.327Z,98118.92
2022-09-02T01:46:23.157Z,98116.06
2022-09-02T01:49:56.951Z,98118.64
2022-09-02T01:53:34.511Z,98118.38
2022-09-02T02:06:57.882Z,98113.92
2022-09-02T02:10:31.921Z,98111.28
2022-09-02T02:14:05.570Z,98112.16
2022-09-02T02:17:39.910Z,98109.23
2022-09-02T02:21:26.991Z,98110.83
2022-09-02T02:34:52.138Z,98105.52
2022-09-02T02:38:25.717Z,98104.15
2022-09-02T02:41:59.549Z,98105.14
2022-09-02T02:55:25.640Z,98099.29
2022-09-02T02:59:01.760Z,98098.38
2022-09-02T03:13:25.750Z,98095.61
2022-09-02T03:17:00.810Z,98097.33
2022-09-02T03:20:36.150Z,98099.40
2022-09-02T03:28:13.956Z,98099.91
2022-09-02T03:45:08.362Z,98103.17
2022-09-02T03:48:41.868Z,98110.27
2022-09-02T03:51:58.131Z,98114.15
2022-09-02T03:55:26.199Z,98116.09
2022-09-02T03:59:03.180Z,98116.59
2022-09-02T04:02:29.619Z,98116.11
2022-09-02T04:08:59.761Z,98116.46
2022-09-02T04:12:33.290Z,98116.68
2022-09-02T04:16:12.961Z,98119.01
2022-09-02T04:19:46.331Z,98121.09
2022-09-02T04:37:39.439Z,98129.79
2022-09-02T04:41:18.178Z,98133.53
2022-09-02T04:44:58.280Z,98128.27
2022-09-02T04:58:24.460Z,98134.77
2022-09-02T05:02:01.259Z,98130.71
2022-09-02T05:05:34.864Z,98127.64
2022-09-02T05:09:09.181Z,98129.04
2022-09-02T05:12:44.122Z,98132.11
2022-09-02T05:26:09.782Z,98125.13
2022-09-02T05:29:45.555Z,98124.20
2022-09-02T05:33:19.559Z,98126.45
2022-09-02T05:50:03.302Z,98127.10
2022-09-02T05:53:36.861Z,98119.73
2022-09-02T05:57:14.813Z,98121.81
2022-09-02T06:10:46.270Z,98121.42
2022-09-02T06:14:25.516Z,98118.27
2022-09-02T06:18:02.219Z,98117.78
2022-09-02T06:24:43.730Z,98119.48
2022-09-02T06:28:19.078Z,98121.14
2022-09-02T06:31:54.987Z,98125.98
2022-09-02T06:35:28.401Z,98130.65
2022-09-02T06:39:03.460Z,98136.08
2022-09-02T06:42:37.330Z,98141.77
2022-09-02T06:56:10.202Z,98142.61
2022-09-02T06:59:43.881Z,98147.31
2022-09-02T07:03:36.026Z,98138.58
2022-09-02T07:10:17.591Z,98142.60
2022-09-02T07:13:51.822Z,98147.07
2022-09-02T07:31:01.414Z,98147.43
2022-09-02T07:34:32.534Z,98146.34
2022-09-02T07:38:04.670Z,98146.33
2022-09-02T07:41:35.919Z,98149.89
2022-09-02T07:45:08.839Z,98146.75
2022-09-02T07:48:39.630Z,98151.89
2022-09-02T07:52:11.484Z,98149.98
2022-09-02T08:13:02.671Z,98155.64
2022-09-02T08:16:36.334Z,98156.73
2022-09-02T08:20:12.402Z,98156.89
2022-09-02T08:23:49.640Z,98157.52
2022-09-02T08:27:23.121Z,98156.17
2022-09-02T08:41:03.100Z,98144.33
2022-09-02T08:44:37.435Z,98141.11
2022-09-02T08:48:16.211Z,98139.34
2022-09-02T08:51:53.335Z,98137.55
2022-09-02T09:06:24.027Z,98126.31
2022-09-02T09:10:11.970Z,98126.45
2022-09-02T09:14:05.371Z,98122.65
2022-09-02T09:17:45.570Z,98114.83
2022-09-02T09:38:16.971Z,98119.74
2022-09-02T09:41:51.652Z,98118.38
2022-09-02T09:45:32.824Z,98118.45
2022-09-02T09:49:07.472Z,98115.08
2022-09-02T09:52:45.761Z,98109.98
2022-09-02T09:56:29.289Z,98109.37
2022-09-02T10:00:04.426Z,98108.27
2022-09-02T10:03:32.928Z,98103.52
2022-09-02T10:06:59.460Z,98098.91
2022-09-02T10:20:31.890Z,98091.84
2022-09-02T10:24:13.919Z,98093.19
2022-09-02T10:27:59.505Z,98087.52
2022-09-02T10:31:40.654Z,98082.55
2022-09-02T10:55:43.230Z,98077.09
2022-09-02T10:59:24.071Z,98071.54
2022-09-02T11:03:09.006Z,98069.60
2022-09-02T11:27:04.431Z,98061.85
2022-09-02T11:30:48.819Z,98064.79
2022-09-02T11:34:36.047Z,98062.86
2022-09-02T11:38:20.925Z,98057.30
2022-09-02T11:42:05.811Z,98055.54
2022-09-02T12:00:08.450Z,98039.30
2022-09-02T12:04:39.790Z,98035.48
2022-09-02T12:07:53.552Z,98034.40
2022-09-02T12:21:28.950Z,98030.89
2022-09-02T12:25:04.860Z,98037.35
2022-09-02T12:28:42.221Z,98033.63
2022-09-02T12:46:29.620Z,98020.73
2022-09-02T12:50:09.328Z,98014.02
2022-09-02T12:53:48.613Z,98003.39
2022-09-02T13:11:12.450Z,97993.94
2022-09-02T13:15:23.387Z,97989.81
2022-09-02T13:19:23.021Z,97992.88
2022-09-02T13:36:36.961Z,97990.59
2022-09-02T13:40:28.480Z,97991.66
2022-09-02T13:44:13.125Z,97987.81
2022-09-02T13:47:48.805Z,97984.13
2022-09-02T14:08:32.471Z,97979.40
2022-09-02T14:12:08.038Z,97974.50
2022-09-02T14:15:42.046Z,97978.57
2022-09-02T14:19:28.011Z,97977.38
2022-09-02T14:23:04.231Z,97981.52
2022-09-02T14:26:43.220Z,97977.41
2022-09-02T14:30:31.721Z,97982.80
2022-09-02T14:33:58.622Z,97971.27
2022-09-02T14:37:28.978Z,97970.36
2022-09-02T14:41:06.508Z,97974.59
2022-09-02T14:44:41.132Z,97972.23
2022-09-02T15:02:25.850Z,97968.40
2022-09-02T15:06:06.150Z,97963.05
2022-09-02T15:09:45.060Z,97965.73
2022-09-02T15:19:52.630Z,97959.61
2022-09-02T15:23:23.880Z,97961.42
2022-09-02T15:26:55.653Z,97961.61
2022-09-02T15:36:46.920Z,97960.09
2022-09-02T15:40:22.513Z,97959.84
2022-09-02T15:43:58.090Z,97965.81
2022-09-02T15:57:23.698Z,97955.77
2022-09-02T16:00:48.590Z,97955.02
2022-09-02T16:04:23.222Z,97954.40
2022-09-02T16:07:56.735Z,97956.20
2022-09-02T16:21:43.649Z,97955.42
2022-09-02T16:25:17.445Z,97951.39
2022-09-02T16:28:52.902Z,97953.41
2022-09-02T16:42:40.800Z,97954.18
2022-09-02T16:46:11.711Z,97957.39
2022-09-02T16:49:42.814Z,97956.62
2022-09-02T16:56:34.896Z,97949.25
2022-09-02T17:00:10.946Z,97947.78
2022-09-02T17:03:47.459Z,97949.83
2022-09-02T17:20:32.842Z,97947.95
2022-09-02T17:24:08.442Z,97950.09
2022-09-02T17:27:44.020Z,97955.38
2022-09-02T17:31:49.536Z,97956.69
2022-09-02T17:49:15.364Z,97961.84
2022-09-02T17:52:48.289Z,97969.05
2022-09-02T17:56:50.422Z,97966.95
2022-09-02T18:00:27.111Z,97970.45
2022-09-02T18:04:27.041Z,97974.77
2022-09-02T18:21:21.559Z,97980.83
2022-09-02T18:25:16.853Z,97981.29
2022-09-02T18:29:01.237Z,97979.92
2022-09-02T18:33:02.876Z,97981.80
2022-09-02T18:46:27.402Z,97984.66
2022-09-02T18:50:22.115Z,97986.54
2022-09-02T18:54:17.894Z,97985.35
2022-09-02T18:58:03.225Z,97982.02
2022-09-02T19:11:34.401Z,97992.77
2022-09-02T19:15:17.465Z,97986.15
2022-09-02T19:18:59.522Z,97983.49
2022-09-02T19:28:56.781Z,97989.77
2022-09-02T19:32:33.889Z,97988.67
2022-09-02T19:36:13.721Z,97988.07
2022-09-02T19:53:22.725Z,97996.16
2022-09-02T19:56:57.591Z,98001.07
2022-09-02T20:00:33.882Z,98000.55
2022-09-02T20:04:09.288Z,97999.32
2022-09-02T20:07:35.231Z,97995.52
2022-09-02T20:21:06.391Z,97995.62
2022-09-02T20:24:40.231Z,97998.96
2022-09-02T20:28:35.575Z,97998.30
2022-09-02T20:39:05.011Z,97995.98
2022-09-02T20:43:07.661Z,97996.60
2022-09-02T20:46:54.681Z,97992.85
2022-09-02T21:03:59.527Z,97994.13
2022-09-02T21:07:43.039Z,97994.17
2022-09-02T21:11:18.050Z,97997.39
2022-09-02T21:28:44.361Z,98000.11
2022-09-02T21:32:26.693Z,98002.05
2022-09-02T21:39:17.292Z,98005.37
2022-09-02T21:43:12.961Z,98006.03
2022-09-02T21:46:49.707Z,98004.00
2022-09-02T22:00:09.489Z,97994.40
2022-09-02T22:03:55.403Z,98000.20
2022-09-02T22:07:35.374Z,98000.02
2022-09-02T22:11:16.723Z,97999.38
2022-09-02T22:14:59.630Z,98002.77
2022-09-02T22:28:28.981Z,97995.63
2022-09-02T22:32:10.441Z,97994.80
2022-09-02T22:35:54.530Z,97994.62
2022-09-02T22:46:14.025Z,97995.41
2022-09-02T22:50:10.402Z,97990.96
2022-09-02T22:53:44.121Z,97988.77
2022-09-02T23:07:06.571Z,97981.48
2022-09-02T23:10:47.882Z,97979.98
2022-09-02T23:14:36.201Z,97980.23
2022-09-02T23:18:45.831Z,97986.23
2022-09-02T23:32:33.762Z,97976.14
2022-09-02T23:36:14.692Z,97975.48
2022-09-02T23:40:02.952Z,97973.54
2022-09-02T23:46:44.081Z,97968.75
2022-09-02T23:50:26.947Z,97969.56
2022-09-02T23:54:18.071Z,97970.08
